createdAt,value
2022-12-11T00:01:50.130Z,22.85
2022-12-11T00:04:10.018Z,19.83
2022-12-11T00:06:29.723Z,22.13
2022-12-11T00:08:53.788Z,22.23
2022-12-11T00:11:17.122Z,28.40
2022-12-11T00:13:36.982Z,22.40
2022-12-11T00:16:00.109Z,22.33
2022-12-11T00:18:19.784Z,354.73
2022-12-11T00:20:40.009Z,272.92
2022-12-11T00:22:59.601Z,350.77
2022-12-11T00:25:19.189Z,166.55
2022-12-11T00:27:38.806Z,140.73
2022-12-11T00:29:58.353Z,88.50
2022-12-11T00:32:18.010Z,113.07
2022-12-11T00:34:37.666Z,36.42
2022-12-11T00:36:58.477Z,84.80
2022-12-11T00:39:18.425Z,267.50
2022-12-11T00:41:38.629Z,390.67
2022-12-11T00:43:58.221Z,614.25
2022-12-11T00:46:18.353Z,154.75
2022-12-11T00:48:38.677Z,239.70
2022-12-11T00:50:59.118Z,491.25
2022-12-11T00:53:18.733Z,385.30
2022-12-11T00:55:39.935Z,497.00
2022-12-11T00:58:00.165Z,625.03
2022-12-11T01:00:20.237Z,566.75
2022-12-11T01:02:40.081Z,622.72
2022-12-11T01:05:01.083Z,350.73
2022-12-11T01:07:20.740Z,426.50
2022-12-11T01:09:58.993Z,156.57
2022-12-11T01:12:18.707Z,440.92
2022-12-11T01:14:38.766Z,443.25
2022-12-11T01:16:58.606Z,504.05
2022-12-11T01:19:18.421Z,362.75
2022-12-11T01:21:38.437Z,413.38
2022-12-11T01:23:58.107Z,555.70
2022-12-11T01:26:18.586Z,358.63
2022-12-11T01:28:38.902Z,158.90
2022-12-11T01:30:58.563Z,72.60
2022-12-11T01:33:18.782Z,39.28
2022-12-11T01:35:39.376Z,139.13
2022-12-11T01:37:59.100Z,242.80
2022-12-11T01:40:20.439Z,528.35
2022-12-11T01:42:40.934Z,572.20
2022-12-11T01:45:58.046Z,534.67
2022-12-11T01:48:21.850Z,563.95
2022-12-11T01:50:48.353Z,517.80
2022-12-11T01:53:11.926Z,448.38
2022-12-11T01:55:33.600Z,24.77
2022-12-11T01:57:53.814Z,15.32
2022-12-11T02:00:14.346Z,12.35
2022-12-11T02:02:34.331Z,12.68
2022-12-11T02:04:54.359Z,13.20
2022-12-11T02:07:14.300Z,16.83
2022-12-11T02:09:37.027Z,21.35
2022-12-11T02:12:14.653Z,20.17
2022-12-11T02:14:42.914Z,14.93
2022-12-11T02:17:20.368Z,13.23
2022-12-11T02:19:52.351Z,11.68
2022-12-11T02:22:27.147Z,19.10
2022-12-11T02:25:02.139Z,17.80
2022-12-11T02:27:40.526Z,13.43
2022-12-11T02:30:15.441Z,52.88
2022-12-11T02:32:41.205Z,25.63
2022-12-11T02:35:10.829Z,249.63
2022-12-11T02:37:35.316Z,30.08
2022-12-11T02:39:56.405Z,21.77
2022-12-11T02:42:19.170Z,198.18
2022-12-11T02:44:40.601Z,102.80
2022-12-11T02:47:02.533Z,13.23
2022-12-11T02:49:23.696Z,13.60
2022-12-11T02:51:43.903Z,12.70
2022-12-11T02:54:08.311Z,90.28
2022-12-11T02:56:46.066Z,193.10
2022-12-11T02:59:17.589Z,219.55
2022-12-11T03:01:37.847Z,210.50
2022-12-11T03:03:58.156Z,233.88
2022-12-11T03:06:28.744Z,310.77
2022-12-11T03:08:51.169Z,316.50
2022-12-11T03:11:11.788Z,249.50
2022-12-11T03:13:31.774Z,134.15
2022-12-11T03:15:52.885Z,125.70
2022-12-11T03:18:18.329Z,55.90
2022-12-11T03:21:07.560Z,86.22
2022-12-11T03:23:32.750Z,123.38
2022-12-11T03:26:02.120Z,7.35
2022-12-11T03:28:29.180Z,8.35
2022-12-11T03:30:52.926Z,8.68
2022-12-11T03:33:23.986Z,11.43
2022-12-11T03:35:48.961Z,9.00
2022-12-11T03:38:14.577Z,8.30
2022-12-11T03:40:35.435Z,8.10
2022-12-11T03:42:56.782Z,7.20
2022-12-11T03:45:18.859Z,9.23
2022-12-11T03:47:40.504Z,8.60
2022-12-11T03:50:01.482Z,7.82
2022-12-11T03:52:22.786Z,7.00
2022-12-11T03:54:46.061Z,7.22
2022-12-11T03:59:27.074Z,8.57
2022-12-11T04:01:47.036Z,7.07
2022-12-11T04:04:06.990Z,7.63
2022-12-11T04:06:26.574Z,6.03
2022-12-11T04:08:46.497Z,7.90
2022-12-11T04:11:24.650Z,7.45
2022-12-11T04:13:44.245Z,7.72
2022-12-11T04:16:04.038Z,7.35
2022-12-11T04:18:42.673Z,7.32
2022-12-11T04:21:21.065Z,7.15
2022-12-11T04:24:19.180Z,6.97
2022-12-11T04:26:38.981Z,6.03
2022-12-11T04:28:58.583Z,4.80
2022-12-11T04:31:20.476Z,4.22
2022-12-11T04:33:41.180Z,5.47
2022-12-11T04:36:01.305Z,7.80
2022-12-11T04:38:20.822Z,4.45
2022-12-11T04:40:40.690Z,5.22
2022-12-11T04:43:00.368Z,3.92
2022-12-11T04:45:20.287Z,4.40
2022-12-11T04:47:40.677Z,4.35
2022-12-11T04:50:00.722Z,3.83
2022-12-11T04:52:21.052Z,5.72
2022-12-11T04:54:41.024Z,4.90
2022-12-11T04:57:00.885Z,5.00
2022-12-11T04:59:20.762Z,4.47
2022-12-11T05:01:40.890Z,4.40
2022-12-11T05:04:00.816Z,4.00
2022-12-11T05:06:20.605Z,5.15
2022-12-11T05:08:41.663Z,4.90
2022-12-11T05:11:05.661Z,5.35
2022-12-11T05:13:26.717Z,5.35
2022-12-11T05:15:46.676Z,5.10
2022-12-11T05:18:06.295Z,4.93
2022-12-11T05:20:26.059Z,6.80
2022-12-11T05:22:45.747Z,5.93
2022-12-11T05:25:06.921Z,5.78
2022-12-11T05:27:26.652Z,4.93
2022-12-11T05:29:46.243Z,4.72
2022-12-11T05:32:06.038Z,6.03
2022-12-11T05:34:26.240Z,6.80
2022-12-11T05:36:46.642Z,10.02
2022-12-11T05:39:06.958Z,5.07
2022-12-11T05:41:29.612Z,4.97
2022-12-11T05:43:50.034Z,7.90
2022-12-11T05:46:16.136Z,6.63
2022-12-11T05:48:37.436Z,10.85
2022-12-11T05:50:58.474Z,11.07
2022-12-11T05:53:18.175Z,6.53
2022-12-11T05:55:37.917Z,5.65
2022-12-11T05:57:57.797Z,5.40
2022-12-11T06:00:17.815Z,4.53
2022-12-11T06:02:37.734Z,6.45
2022-12-11T06:04:58.019Z,6.72
2022-12-11T06:07:17.607Z,5.93
2022-12-11T06:09:37.314Z,5.55
2022-12-11T06:11:57.080Z,6.22
2022-12-11T06:14:16.706Z,9.52
2022-12-11T06:16:36.773Z,5.05
2022-12-11T06:18:58.440Z,8.93
2022-12-11T06:21:32.320Z,6.85
2022-12-11T06:23:55.070Z,6.45
2022-12-11T06:26:15.945Z,8.45
2022-12-11T06:28:36.645Z,9.43
2022-12-11T06:31:00.737Z,7.60
2022-12-11T06:33:20.514Z,12.48
2022-12-11T06:35:42.307Z,5.38
2022-12-11T06:38:02.661Z,7.65
2022-12-11T06:40:22.593Z,10.70
2022-12-11T06:42:42.364Z,10.52
2022-12-11T06:45:02.013Z,12.45
2022-12-11T06:47:21.897Z,8.52
2022-12-11T06:49:41.898Z,18.13
2022-12-11T06:52:01.784Z,8.70
2022-12-11T06:54:26.480Z,14.25
2022-12-11T06:56:46.641Z,15.57
2022-12-11T06:59:10.132Z,5.95
2022-12-11T07:02:01.393Z,5.05
2022-12-11T07:04:24.221Z,9.88
2022-12-11T07:06:46.578Z,6.78
2022-12-11T07:09:06.718Z,8.70
2022-12-11T07:11:26.381Z,6.07
2022-12-11T07:13:47.027Z,12.07
2022-12-11T07:16:10.081Z,9.23
2022-12-11T07:18:32.004Z,9.75
2022-12-11T07:20:51.765Z,12.43
2022-12-11T07:23:11.379Z,11.05
2022-12-11T07:25:30.976Z,9.48
2022-12-11T07:27:50.597Z,7.60
2022-12-11T07:30:11.238Z,25.48
2022-12-11T07:32:31.379Z,14.45
2022-12-11T07:34:52.067Z,13.05
2022-12-11T07:37:12.132Z,15.07
2022-12-11T07:39:32.298Z,10.45
2022-12-11T07:41:52.843Z,19.58
2022-12-11T07:44:13.089Z,3.85
2022-12-11T07:46:33.960Z,3.70
2022-12-11T07:48:54.244Z,3.90
2022-12-11T07:51:22.136Z,3.40
2022-12-11T07:53:42.957Z,4.13
2022-12-11T07:56:03.811Z,3.55
2022-12-11T07:58:23.534Z,3.90
2022-12-11T08:00:44.726Z,5.32
2022-12-11T08:03:04.677Z,4.38
2022-12-11T08:05:24.305Z,4.30
2022-12-11T08:07:43.751Z,10.18
2022-12-11T08:10:04.509Z,14.95
2022-12-11T08:12:24.385Z,17.10
2022-12-11T08:14:43.966Z,13.60
2022-12-11T08:17:03.763Z,10.23
2022-12-11T08:19:23.638Z,12.52
2022-12-11T08:21:44.325Z,8.82
2022-12-11T08:24:04.392Z,7.10
2022-12-11T08:26:28.401Z,7.85
2022-12-11T08:28:48.240Z,5.28
2022-12-11T08:31:10.216Z,5.97
2022-12-11T08:33:29.955Z,5.63
2022-12-11T08:35:50.167Z,7.03
2022-12-11T08:38:10.190Z,9.43
2022-12-11T08:40:29.878Z,10.55
2022-12-11T08:42:49.606Z,7.13
2022-12-11T08:45:10.280Z,7.90
2022-12-11T08:47:30.446Z,6.00
2022-12-11T08:49:50.166Z,7.15
2022-12-11T08:52:09.822Z,7.38
2022-12-11T08:54:29.333Z,7.80
2022-12-11T08:56:52.292Z,15.35
2022-12-11T08:59:14.693Z,11.27
2022-12-11T09:01:34.464Z,6.35
2022-12-11T09:03:56.037Z,12.77
2022-12-11T09:06:18.381Z,10.43
2022-12-11T09:08:39.153Z,9.43
2022-12-11T09:11:07.554Z,11.27
2022-12-11T09:13:27.633Z,11.75
2022-12-11T09:15:47.968Z,6.55
2022-12-11T09:18:08.287Z,6.20
2022-12-11T09:20:28.501Z,9.43
2022-12-11T09:22:48.144Z,5.32
2022-12-11T09:25:09.096Z,4.22
2022-12-11T09:27:29.411Z,5.95
2022-12-11T09:29:49.360Z,13.93
2022-12-11T09:32:09.381Z,9.98
2022-12-11T09:34:29.762Z,11.75
2022-12-11T09:36:49.416Z,7.88
2022-12-11T09:39:11.127Z,5.85
2022-12-11T09:41:56.458Z,7.93
2022-12-11T09:44:19.728Z,7.65
2022-12-11T09:49:01.983Z,10.10
2022-12-11T09:51:31.955Z,8.68
2022-12-11T09:53:54.529Z,5.43
2022-12-11T09:56:32.773Z,6.20
2022-12-11T09:59:14.591Z,5.32
2022-12-11T10:01:48.186Z,4.75
2022-12-11T10:06:54.174Z,6.60
2022-12-11T10:09:34.063Z,4.57
2022-12-11T10:12:30.866Z,4.82
2022-12-11T10:15:07.814Z,13.75
2022-12-11T10:17:34.234Z,9.95
2022-12-11T10:20:16.395Z,8.23
2022-12-11T10:22:36.407Z,7.38
2022-12-11T10:25:11.646Z,5.72
2022-12-11T10:27:39.155Z,6.28
2022-12-11T10:30:13.089Z,6.40
2022-12-11T10:32:56.004Z,5.93
2022-12-11T10:35:31.238Z,15.40
2022-12-11T10:37:55.090Z,13.77
2022-12-11T10:40:17.977Z,12.45
2022-12-11T10:42:41.277Z,12.40
2022-12-11T10:45:15.791Z,11.23
2022-12-11T10:47:35.877Z,6.30
2022-12-11T10:49:58.728Z,6.20
2022-12-11T10:52:32.432Z,7.22
2022-12-11T10:55:01.974Z,11.10
2022-12-11T10:57:29.055Z,12.85
2022-12-11T10:59:49.804Z,17.02
2022-12-11T11:02:38.288Z,16.33
2022-12-11T11:05:00.400Z,16.35
2022-12-11T11:07:26.644Z,15.85
2022-12-11T11:09:46.509Z,12.00
2022-12-11T11:12:25.472Z,13.18
2022-12-11T11:14:45.226Z,10.88
2022-12-11T11:17:04.741Z,10.25
2022-12-11T11:19:34.066Z,8.52
2022-12-11T11:22:16.770Z,15.75
2022-12-11T11:24:40.918Z,20.60
2022-12-11T11:27:16.490Z,8.32
2022-12-11T11:29:37.169Z,9.50
2022-12-11T11:32:19.490Z,8.73
2022-12-11T11:34:39.460Z,8.63
2022-12-11T11:37:04.786Z,6.65
2022-12-11T11:39:38.253Z,7.95
2022-12-11T11:42:14.385Z,12.90
2022-12-11T11:44:46.161Z,6.18
2022-12-11T11:47:15.359Z,6.55
2022-12-11T11:49:55.081Z,10.05
2022-12-11T11:52:25.402Z,8.00
2022-12-11T11:55:08.721Z,7.55
2022-12-11T11:57:56.200Z,16.27
2022-12-11T12:00:33.613Z,7.32
2022-12-11T12:03:21.816Z,6.22
2022-12-11T12:05:50.483Z,10.73
2022-12-11T12:08:28.435Z,10.20
2022-12-11T12:11:07.331Z,5.65
2022-12-11T12:14:29.098Z,6.13
2022-12-11T12:17:14.560Z,5.18
2022-12-11T12:19:58.760Z,8.40
2022-12-11T12:22:50.907Z,19.33
2022-12-11T12:25:42.492Z,9.18
2022-12-11T12:28:05.591Z,7.18
2022-12-11T12:30:30.285Z,8.35
2022-12-11T12:33:19.044Z,7.72
2022-12-11T12:35:49.996Z,13.98
2022-12-11T12:38:43.637Z,17.00
2022-12-11T12:41:28.286Z,13.98
2022-12-11T12:44:01.948Z,14.35
2022-12-11T12:46:34.047Z,16.83
2022-12-11T12:48:56.359Z,16.13
2022-12-11T12:51:17.645Z,6.10
2022-12-11T12:53:37.534Z,5.55
2022-12-11T12:55:57.974Z,6.03
2022-12-11T12:58:41.351Z,6.40
2022-12-11T13:01:07.918Z,7.07
2022-12-11T13:03:31.566Z,5.10
2022-12-11T13:06:01.283Z,6.72
2022-12-11T13:08:30.258Z,51.35
2022-12-11T13:11:02.909Z,34.58
2022-12-11T13:13:50.181Z,67.13
2022-12-11T13:16:16.348Z,15.85
2022-12-11T13:18:38.766Z,6.88
2022-12-11T13:20:59.772Z,8.18
2022-12-11T13:23:31.393Z,10.52
2022-12-11T13:25:54.673Z,7.15
2022-12-11T13:28:46.208Z,12.88
2022-12-11T13:31:15.210Z,8.40
2022-12-11T13:33:42.350Z,9.05
2022-12-11T13:36:25.234Z,24.25
2022-12-11T13:39:16.541Z,9.80
2022-12-11T13:41:37.647Z,6.72
2022-12-11T13:43:58.119Z,9.25
2022-12-11T13:46:25.582Z,9.43
2022-12-11T13:49:00.108Z,7.88
2022-12-11T13:51:23.475Z,7.40
2022-12-11T13:56:06.132Z,4.85
2022-12-11T14:01:07.878Z,8.20
2022-12-11T14:03:29.287Z,6.80
2022-12-11T14:05:49.064Z,5.38
2022-12-11T14:08:11.442Z,6.57
2022-12-11T14:10:32.540Z,6.25
2022-12-11T14:12:52.603Z,5.93
2022-12-11T14:15:15.039Z,6.25
2022-12-11T14:17:35.111Z,7.10
2022-12-11T14:19:57.595Z,5.47
2022-12-11T14:22:23.382Z,5.75
2022-12-11T14:24:49.358Z,7.20
2022-12-11T14:27:16.291Z,17.67
2022-12-11T14:29:36.029Z,13.73
2022-12-11T14:32:00.499Z,8.95
2022-12-11T14:34:29.998Z,10.18
2022-12-11T14:36:50.351Z,8.93
2022-12-11T14:39:18.936Z,8.73
2022-12-11T14:42:11.609Z,8.55
2022-12-11T14:44:39.893Z,8.25
2022-12-11T14:47:06.404Z,9.38
2022-12-11T14:49:29.037Z,11.32
2022-12-11T14:51:51.061Z,10.23
2022-12-11T14:54:25.512Z,11.93
2022-12-11T14:56:46.981Z,8.82
2022-12-11T14:59:18.503Z,12.43
2022-12-11T15:01:38.888Z,11.68
2022-12-11T15:04:13.742Z,18.50
2022-12-11T15:06:47.672Z,13.27
2022-12-11T15:09:18.240Z,26.15
2022-12-11T15:12:18.162Z,18.85
2022-12-11T15:14:55.161Z,21.80
2022-12-11T15:17:15.422Z,22.40
2022-12-11T15:19:36.237Z,9.63
2022-12-11T15:22:02.719Z,7.50
2022-12-11T15:24:31.632Z,8.40
2022-12-11T15:26:56.029Z,12.15
2022-12-11T15:29:33.943Z,17.95
2022-12-11T15:31:59.999Z,16.45
2022-12-11T15:34:24.290Z,16.40
2022-12-11T15:36:44.273Z,14.18
2022-12-11T15:39:08.770Z,16.85
2022-12-11T15:41:32.455Z,28.42
2022-12-11T15:43:58.861Z,22.95
2022-12-11T15:46:19.120Z,19.33
2022-12-11T15:48:39.252Z,18.98
2022-12-11T15:50:59.233Z,17.20
2022-12-11T15:53:19.015Z,14.35
2022-12-11T15:55:39.139Z,15.73
2022-12-11T15:58:02.514Z,27.17
2022-12-11T16:02:43.074Z,26.77
2022-12-11T16:05:03.365Z,25.50
2022-12-11T16:07:25.615Z,16.38
2022-12-11T16:09:45.936Z,14.93
2022-12-11T16:12:05.906Z,23.77
2022-12-11T16:14:25.698Z,28.83
2022-12-11T16:16:45.745Z,23.17
2022-12-11T16:19:05.765Z,26.27
2022-12-11T16:21:25.632Z,25.50
2022-12-11T16:23:45.078Z,21.27
2022-12-11T16:26:07.525Z,22.65
2022-12-11T16:28:27.313Z,14.68
2022-12-11T16:30:47.250Z,14.00
2022-12-11T16:33:12.111Z,13.48
2022-12-11T16:35:33.110Z,15.88
2022-12-11T16:37:53.602Z,31.58
2022-12-11T16:40:13.845Z,23.50
2022-12-11T16:42:34.361Z,20.27
2022-12-11T16:44:54.065Z,17.77
2022-12-11T16:47:13.756Z,15.57
2022-12-11T16:49:33.772Z,12.55
2022-12-11T16:51:53.420Z,10.38
2022-12-11T16:54:12.871Z,11.20
2022-12-11T16:56:33.546Z,13.95
2022-12-11T16:58:53.170Z,16.55
2022-12-11T17:01:14.274Z,15.57
2022-12-11T17:03:34.125Z,14.07
2022-12-11T17:05:54.159Z,22.88
2022-12-11T17:08:13.978Z,40.63
2022-12-11T17:10:38.045Z,37.70
2022-12-11T17:12:57.895Z,38.13
2022-12-11T17:15:18.695Z,35.30
2022-12-11T17:17:41.092Z,36.90
2022-12-11T17:20:01.113Z,24.90
2022-12-11T17:22:21.553Z,25.60
2022-12-11T17:24:41.461Z,19.92
2022-12-11T17:27:01.578Z,21.15
2022-12-11T17:29:21.362Z,34.80
2022-12-11T17:31:41.368Z,34.10
2022-12-11T17:34:01.080Z,24.35
2022-12-11T17:36:21.837Z,19.50
2022-12-11T17:38:42.113Z,22.48
2022-12-11T17:41:07.597Z,36.13
2022-12-11T17:43:27.455Z,36.10
2022-12-11T17:45:51.897Z,31.90
2022-12-11T17:48:11.975Z,26.85
2022-12-11T17:50:31.942Z,21.15
2022-12-11T17:52:51.431Z,25.45
2022-12-11T17:55:11.957Z,24.45
2022-12-11T17:57:32.681Z,20.90
2022-12-11T17:59:55.776Z,20.70
2022-12-11T18:02:15.832Z,24.65
2022-12-11T18:04:38.377Z,23.38
2022-12-11T18:06:58.498Z,18.13
2022-12-11T18:09:18.373Z,14.93
2022-12-11T18:11:38.245Z,19.73
2022-12-11T18:13:58.085Z,51.40
2022-12-11T18:16:21.421Z,57.80
2022-12-11T18:18:41.158Z,72.88
2022-12-11T18:21:02.060Z,67.65
2022-12-11T18:23:22.239Z,67.57
2022-12-11T18:25:42.248Z,48.63
2022-12-11T18:28:01.743Z,72.40
2022-12-11T18:30:22.521Z,78.70
2022-12-11T18:32:43.392Z,51.13
2022-12-11T18:35:03.919Z,70.63
2022-12-11T18:37:27.873Z,49.38
2022-12-11T18:39:48.214Z,76.28
2022-12-11T18:42:32.440Z,53.92
2022-12-11T18:44:47.577Z,66.43
2022-12-11T18:47:07.034Z,67.75
2022-12-11T18:49:26.689Z,63.72
2022-12-11T18:51:46.973Z,42.80
2022-12-11T18:54:08.918Z,84.88
2022-12-11T18:56:28.593Z,569.38
2022-12-11T18:58:48.938Z,109.43
2022-12-11T19:01:21.304Z,79.10
2022-12-11T19:03:40.849Z,84.07
2022-12-11T19:06:15.322Z,85.53
2022-12-11T19:08:35.181Z,67.18
2022-12-11T19:10:57.816Z,159.80
2022-12-11T19:13:17.433Z,93.70
2022-12-11T19:15:56.754Z,67.07
2022-12-11T19:18:16.722Z,46.13
2022-12-11T19:20:55.433Z,83.63
2022-12-11T19:23:22.945Z,45.75
2022-12-11T19:25:45.772Z,88.60
2022-12-11T19:28:05.706Z,57.90
2022-12-11T19:30:25.496Z,37.67
2022-12-11T19:32:45.072Z,44.28
2022-12-11T19:35:05.089Z,60.10
2022-12-11T19:37:25.637Z,68.95
2022-12-11T19:39:45.417Z,56.42
2022-12-11T19:42:05.054Z,44.50
2022-12-11T19:44:24.904Z,70.80
2022-12-11T19:46:44.897Z,31.42
2022-12-11T19:49:05.068Z,32.35
2022-12-11T19:51:28.495Z,30.23
2022-12-11T19:53:49.080Z,30.92
2022-12-11T19:56:09.937Z,28.55
2022-12-11T19:58:30.026Z,26.77
2022-12-11T20:00:49.719Z,28.25
2022-12-11T20:03:09.846Z,32.55
2022-12-11T20:05:29.660Z,37.25
2022-12-11T20:07:51.209Z,41.33
2022-12-11T20:10:11.471Z,60.70
2022-12-11T20:12:31.955Z,34.05
2022-12-11T20:14:51.570Z,37.80
2022-12-11T20:17:14.011Z,52.47
2022-12-11T20:21:55.250Z,125.07
2022-12-11T20:24:15.285Z,199.95
2022-12-11T20:26:37.396Z,209.48
2022-12-11T20:28:57.077Z,126.50
2022-12-11T20:31:20.953Z,43.85
2022-12-11T20:33:40.883Z,202.55
2022-12-11T20:36:01.436Z,214.43
2022-12-11T20:38:21.426Z,151.63
2022-12-11T20:40:44.725Z,107.90
2022-12-11T20:43:04.434Z,69.88
2022-12-11T20:45:24.654Z,66.20
2022-12-11T20:47:44.812Z,57.42
2022-12-11T20:50:05.514Z,132.00
2022-12-11T20:52:25.096Z,94.95
2022-12-11T20:54:45.526Z,210.18
2022-12-11T20:57:05.201Z,396.40
2022-12-11T20:59:25.572Z,328.92
2022-12-11T21:01:45.635Z,233.85
2022-12-11T21:04:05.907Z,96.35
2022-12-11T21:06:31.854Z,664.65
2022-12-11T21:08:52.624Z,477.13
2022-12-11T21:11:12.766Z,420.83
2022-12-11T21:13:33.305Z,80.60
2022-12-11T21:15:55.957Z,98.35
2022-12-11T21:18:16.237Z,94.75
2022-12-11T21:20:36.235Z,46.45
2022-12-11T21:22:56.893Z,460.45
2022-12-11T21:25:16.459Z,45.60
2022-12-11T21:27:36.599Z,224.25
2022-12-11T21:29:56.646Z,595.28
2022-12-11T21:32:16.600Z,727.17
2022-12-11T21:34:37.383Z,601.45
2022-12-11T21:36:57.543Z,279.48
2022-12-11T21:39:17.496Z,617.42
2022-12-11T21:41:37.492Z,236.95
2022-12-11T21:46:37.465Z,275.38
2022-12-11T21:48:57.157Z,63.10
2022-12-11T21:51:23.978Z,41.80
2022-12-11T21:53:44.403Z,170.65
2022-12-11T21:56:09.038Z,307.65
2022-12-11T21:58:28.920Z,89.60
2022-12-11T22:00:48.747Z,288.45
2022-12-11T22:03:08.339Z,278.02
2022-12-11T22:05:27.991Z,464.77
2022-12-11T22:07:47.616Z,343.38
2022-12-11T22:10:08.148Z,46.38
2022-12-11T22:12:28.290Z,333.38
2022-12-11T22:14:48.753Z,183.57
2022-12-11T22:17:08.379Z,90.13
2022-12-11T22:19:32.461Z,153.30
2022-12-11T22:21:52.882Z,245.85
2022-12-11T22:24:13.415Z,280.65
2022-12-11T22:26:32.975Z,292.08
2022-12-11T22:28:52.602Z,168.20
2022-12-11T22:31:13.783Z,107.63
2022-12-11T22:33:33.710Z,82.82
2022-12-11T22:35:57.705Z,179.65
2022-12-11T22:38:17.543Z,230.82
2022-12-11T22:40:41.405Z,315.13
2022-12-11T22:43:01.441Z,264.75
2022-12-11T22:45:21.480Z,367.65
2022-12-11T22:47:41.305Z,284.38
2022-12-11T22:50:00.985Z,155.93
2022-12-11T22:52:20.575Z,235.88
2022-12-11T22:54:41.534Z,129.35
2022-12-11T22:57:01.202Z,322.65
2022-12-11T22:59:20.702Z,173.93
2022-12-11T23:02:10.365Z,210.10
2022-12-11T23:04:30.273Z,237.15
2022-12-11T23:06:51.159Z,222.95
2022-12-11T23:09:11.383Z,172.07
2022-12-11T23:11:36.142Z,312.08
2022-12-11T23:13:56.694Z,415.88
2022-12-11T23:16:16.684Z,222.10
2022-12-11T23:18:37.263Z,407.25
2022-12-11T23:20:57.304Z,497.42
2022-12-11T23:23:17.183Z,138.77
2022-12-11T23:25:37.266Z,460.45
2022-12-11T23:27:57.282Z,412.90
2022-12-11T23:30:17.398Z,252.98
2022-12-11T23:32:37.377Z,122.78
2022-12-11T23:34:57.868Z,228.82
2022-12-11T23:37:17.711Z,169.52
2022-12-11T23:39:37.520Z,100.63
2022-12-11T23:41:57.601Z,175.65
2022-12-11T23:44:17.663Z,243.02
2022-12-11T23:46:37.953Z,241.45
2022-12-11T23:48:57.969Z,70.65
2022-12-11T23:51:19.860Z,110.60
2022-12-11T23:53:40.018Z,265.27
2022-12-11T23:56:05.840Z,288.23
2022-12-11T23:58:25.507Z,300.80
